Bailey Island, ME

11:25 PM EDT on August 04, 2015 (GMT -0400)
KMELONGI2 | | Change Station
CLOSE
Current Station
Personal Weather Station
Location: Long Island, ME
Elevation: 40 ft
Nearby Weather Stations

Elev 40 ft 43.68 °N, 70.16 °W | Updated 6 seconds ago

Partly Cloudy
Partly Cloudy
62.2 °F
Feels Like 62.2 °F
N
2.0
Wind Variable Wind from NW
Gusts 3.0 mph

Today
High -- | Low -- °F
--% Chance of Precip.
Yesterday
High -- | Low -- °F
Precip. -- in
5:32 AM 8:00 PM
Waning Gibbous, 71% visible
Pressure 29.85 in
Visibility 10.0 miles
Clouds Clear
Dew Point 61 °F
Humidity 96%
Rainfall in
Snow Depth Not available.
UV 0 out of 12
Pollen 4.90 out of 12
Air Quality Not available.
Flu Activity Not available.
METAR KPWM 050251Z 24005KT 10SM CLR 17/16 A2985 RMK AO2 SLP108 T01720161 51010

More Conditions Fewer Conditions

Pressure 29.85 in
Visibility 10.0 miles
Clouds Clear
Dew Point 61 °F
Humidity 96%
Rainfall in
Snow Depth Not available.
UV 0 out of 12
Pollen 4.90 out of 12
Air Quality Not available.
Flu Activity Not available.
METAR KPWM 050251Z 24005KT 10SM CLR 17/16 A2985 RMK AO2 SLP108 T01720161 51010

More Conditions Fewer Conditions

10-Day Weather Forecast

×

Almanac

Astronomy

Aug. 04, 2015 Rise Set
Actual Time
Civil Twilight
Nautical Twilight
Astronomical Twilight
Moon
Length of Visible Light
Length of Day
Tomorrow will be .
, % of the Moon is Illuminated

Today's Extremes

State Highs State Lows

Community

WunderPhotos

Upload Photos

1,844,088 photos uploaded!

WunderBlogs® & News

Nearby

Air Quality

  Air Quality AQ Index Pollutant
Not available.

Snow Depth

Station Depth Elevation

Earthquake Activity

City Distance Mag. Time & Date
Minimum magnitude displayed is 2.5.

Coastal Water Temperatures

Place Temperature

Stations

Nearby Weather Stations

Station Location Temp. Windchill Dew Point Humidity Wind Precip. Elev Updated Type